Time;durP1;ratioP1;P1;durP2;ratioP2;P2;SDS_P1;SDS_P2;PMS_P1;PMS_P2;Temp;Humidity;BMP_temperature;BMP_pressure;BME280_temperature;BME280_humidity;BME280_pressure;Samples;Min_cycle;Max_cycle;Signal;HPM_P1;HPM_P2
2024/01/29 00:05:12;;;;;;;10.35;5.43;;;;;;;21.33;46.98;102530.28;41485336;28;20121;-72
2024/01/29 00:25:12;;;;;;;8.02;5.63;;;;;;;21.36;47.05;102517.00;41492213;28;20052;-73
2024/01/29 00:45:13;;;;;;;7.38;5.30;;;;;;;21.29;47.09;102528.72;41495353;28;20103;-73
2024/01/29 01:05:13;;;;;;;7.15;5.13;;;;;;;21.25;46.81;102559.63;41432228;28;20057;-72
2024/01/29 01:25:14;;;;;;;7.70;5.43;;;;;;;21.16;47.10;102561.81;41361162;28;20046;-74
2024/01/29 01:45:14;;;;;;;8.02;5.75;;;;;;;21.11;46.55;102546.19;41358796;28;20081;-72
2024/01/29 02:05:15;;;;;;;7.28;5.60;;;;;;;21.06;46.56;102543.75;41345906;28;20081;-72
2024/01/29 02:25:15;;;;;;;8.30;5.80;;;;;;;20.98;46.97;102540.56;41422315;28;20058;-72
2024/01/29 02:45:15;;;;;;;6.95;5.57;;;;;;;20.90;46.94;102514.56;41512077;28;20066;-72
2024/01/29 03:05:16;;;;;;;7.55;5.60;;;;;;;20.93;46.34;102529.38;41499968;28;20060;-71
2024/01/29 03:25:18;;;;;;;8.13;5.97;;;;;;;20.89;46.42;102539.19;41498028;28;20042;-72
2024/01/29 03:45:18;;;;;;;8.85;6.13;;;;;;;20.82;46.45;102529.84;41496766;28;20073;-72
2024/01/29 04:05:18;;;;;;;9.30;6.30;;;;;;;20.71;46.46;102532.88;41488986;28;20537;-72
2024/01/29 04:25:20;;;;;;;9.30;5.85;;;;;;;20.69;46.15;102518.94;41473562;28;20048;-73
2024/01/29 04:45:20;;;;;;;8.00;6.10;;;;;;;20.68;46.11;102540.91;41464606;28;20099;-72
2024/01/29 05:05:23;;;;;;;8.45;6.03;;;;;;;20.70;46.13;102554.88;41489948;28;20099;-82
2024/01/29 05:25:23;;;;;;;10.65;6.13;;;;;;;21.11;45.54;102562.00;41453356;28;20049;-74
2024/01/29 05:45:24;;;;;;;8.98;6.50;;;;;;;21.57;45.53;102540.72;41450593;28;20053;-71
2024/01/29 06:05:24;;;;;;;19.65;9.43;;;;;;;20.72;43.53;102550.44;41487870;28;20056;-69
2024/01/29 06:25:26;;;;;;;18.23;9.55;;;;;;;21.11;42.74;102562.84;41546999;28;20050;-81
2024/01/29 06:45:28;;;;;;;18.10;8.65;;;;;;;21.47;42.72;102581.53;41558892;28;20110;-76
2024/01/29 07:05:29;;;;;;;19.48;8.65;;;;;;;21.46;43.06;102583.34;41540710;28;20497;-76
2024/01/29 07:25:31;;;;;;;66.57;18.85;;;;;;;21.47;43.15;102607.91;41532259;28;20172;-75
2024/01/29 07:45:32;;;;;;;41.40;13.98;;;;;;;21.63;42.40;102613.38;41536611;28;20149;-75
2024/01/29 08:05:34;;;;;;;40.05;12.18;;;;;;;21.65;42.20;102593.09;41526371;28;20116;-75
2024/01/29 08:25:34;;;;;;;25.90;10.90;;;;;;;21.62;41.79;102587.94;41481215;28;20053;-72
2024/01/29 08:45:35;;;;;;;20.65;9.60;;;;;;;21.74;41.91;102605.88;41471423;28;20168;-78
2024/01/29 09:05:38;;;;;;;18.90;9.07;;;;;;;21.89;41.76;102605.16;41525231;28;20046;-75
2024/01/29 09:25:39;;;;;;;15.23;8.82;;;;;;;22.00;41.59;102612.59;41526509;28;20057;-73
2024/01/29 09:45:39;;;;;;;13.48;8.90;;;;;;;22.06;41.54;102607.03;41520369;28;20049;-74
2024/01/29 10:05:40;;;;;;;12.13;7.85;;;;;;;22.15;41.31;102599.63;41573710;28;20070;-75
2024/01/29 10:25:41;;;;;;;13.10;7.70;;;;;;;22.34;40.92;102574.09;41541472;28;20042;-73
2024/01/29 10:45:46;;;;;;;9.63;7.47;;;;;;;22.53;40.85;102570.59;41534177;28;20376;-73
2024/01/29 11:05:54;;;;;;;12.40;6.90;;;;;;;22.71;40.43;102547.69;41565869;28;20041;-73
2024/01/29 11:26:03;;;;;;;11.52;6.13;;;;;;;22.79;40.41;102513.84;41532509;28;20046;-71
2024/01/29 11:46:06;;;;;;;9.20;5.70;;;;;;;22.99;40.80;102499.59;41373778;28;20046;-72
2024/01/29 12:06:06;;;;;;;7.47;5.03;;;;;;;23.20;40.42;102488.03;41379204;28;20133;-74
2024/01/29 12:26:07;;;;;;;5.90;4.57;;;;;;;23.40;40.46;102493.13;41485821;28;20114;-74
2024/01/29 12:46:13;;;;;;;6.75;4.50;;;;;;;23.53;40.52;102466.84;41544650;28;20136;-72
2024/01/29 13:06:13;;;;;;;;;;;;;;;23.73;39.91;102471.06;41503577;28;20049;-71
2024/01/29 13:26:14;;;;;;;5.90;4.43;;;;;;;23.84;40.26;102473.09;41591500;28;19925;-74
2024/01/29 13:46:18;;;;;;;11.45;4.40;;;;;;;23.62;41.03;102463.72;41600327;28;20057;-81
2024/01/29 14:06:18;;;;;;;10.18;3.63;;;;;;;23.33;41.26;102466.13;41632044;28;20046;-73
2024/01/29 14:26:22;;;;;;;4.80;3.40;;;;;;;23.17;41.28;102470.56;41630203;28;20041;-75
2024/01/29 14:46:23;;;;;;;5.43;3.28;;;;;;;23.15;41.24;102469.75;41590545;28;20037;-76
2024/01/29 15:06:27;;;;;;;6.40;3.33;;;;;;;22.91;41.76;102479.81;41591238;28;20042;-73
2024/01/29 15:26:28;;;;;;;4.03;3.20;;;;;;;22.69;41.87;102486.16;41585715;28;20041;-75
2024/01/29 15:46:29;;;;;;;3.22;2.90;;;;;;;22.63;42.19;102502.34;41600076;28;20114;-74
2024/01/29 16:06:29;;;;;;;4.57;3.13;;;;;;;22.48;42.29;102518.00;41597701;28;20042;-80
2024/01/29 16:26:30;;;;;;;6.60;3.05;;;;;;;22.47;42.04;102521.59;41605177;28;20107;-76
2024/01/29 16:46:31;;;;;;;5.60;3.13;;;;;;;22.37;41.23;102521.16;41526603;28;20053;-75
2024/01/29 17:06:32;;;;;;;28.77;5.75;;;;;;;22.55;44.22;102547.59;41518077;28;20465;-72
2024/01/29 17:26:33;;;;;;;112.90;24.17;;;;;;;22.33;46.32;102558.31;41489223;28;20173;-74
2024/01/29 17:46:34;;;;;;;80.10;19.15;;;;;;;22.38;48.16;102572.19;41428002;28;20041;-68
2024/01/29 18:06:47;;;;;;;111.60;28.77;;;;;;;22.34;49.62;102570.59;41469511;28;20042;-68
2024/01/29 18:26:48;;;;;;;101.07;29.35;;;;;;;22.54;50.27;102569.66;41478043;28;20069;-68
2024/01/29 18:46:50;;;;;;;87.30;25.63;;;;;;;22.51;51.17;102588.31;41485811;28;20050;-68
2024/01/29 19:06:51;;;;;;;68.25;22.95;;;;;;;22.48;50.42;102591.06;41486951;28;20053;-72
2024/01/29 19:26:53;;;;;;;63.53;20.30;;;;;;;22.44;49.95;102615.94;41512424;28;20057;-71
2024/01/29 19:46:54;;;;;;;49.28;18.27;;;;;;;22.41;49.83;102631.91;41493527;28;20045;-70
2024/01/29 20:06:56;;;;;;;39.55;15.65;;;;;;;22.31;49.43;102639.34;41495169;28;20045;-72
2024/01/29 20:26:58;;;;;;;36.08;15.30;;;;;;;21.97;49.33;102638.25;41476783;28;20185;-71
2024/01/29 20:46:59;;;;;;;37.42;14.68;;;;;;;21.77;47.54;102637.38;41491983;28;20091;-73
2024/01/29 21:07:02;;;;;;;32.72;13.95;;;;;;;21.77;47.68;102649.72;41483350;28;20041;-72
2024/01/29 21:27:03;;;;;;;25.30;12.13;;;;;;;21.69;48.51;102652.66;41483354;28;20450;-70
2024/01/29 21:47:06;;;;;;;27.63;13.15;;;;;;;21.66;48.77;102655.47;41517300;28;20104;-74
2024/01/29 22:07:09;;;;;;;20.55;11.63;;;;;;;21.58;49.42;102661.91;41528122;28;20708;-72
2024/01/29 22:27:11;;;;;;;20.98;10.90;;;;;;;21.63;49.37;102668.75;41486118;28;20042;-73
2024/01/29 22:47:11;;;;;;;20.05;10.75;;;;;;;21.42;49.98;102666.97;41324885;28;20054;-73
2024/01/29 23:07:12;;;;;;;18.10;10.55;;;;;;;21.39;49.42;102676.78;41400556;28;20041;-74
2024/01/29 23:27:12;;;;;;;14.00;9.77;;;;;;;21.43;48.89;102683.63;41504462;28;20128;-77
2024/01/29 23:47:13;;;;;;;17.67;10.63;;;;;;;21.26;49.22;102672.03;41499656;28;20071;-73
